createdAt,value
2018-01-11T00:00:46.945Z,11.00
2018-01-11T00:01:53.769Z,10.00
2018-01-11T00:03:00.600Z,11.00
2018-01-11T00:04:07.415Z,10.70
2018-01-11T00:05:14.221Z,10.60
2018-01-11T00:06:21.057Z,12.10
2018-01-11T00:07:27.854Z,11.30
2018-01-11T00:08:34.633Z,11.80
2018-01-11T00:09:41.475Z,12.30
2018-01-11T00:10:48.240Z,12.10
2018-01-11T00:11:55.044Z,12.00
2018-01-11T00:13:01.889Z,10.70
2018-01-11T00:14:08.615Z,12.30
2018-01-11T00:15:15.435Z,11.80
2018-01-11T00:16:22.345Z,11.50
2018-01-11T00:17:29.108Z,10.60
2018-01-11T00:18:35.908Z,10.20
2018-01-11T00:19:42.719Z,10.30
2018-01-11T00:20:49.452Z,9.70
2018-01-11T00:21:56.352Z,10.30
2018-01-11T00:23:03.140Z,9.80
2018-01-11T00:24:09.868Z,10.30
2018-01-11T00:25:16.647Z,11.90
2018-01-11T00:26:23.412Z,11.40
2018-01-11T00:27:30.200Z,11.70
2018-01-11T00:28:36.962Z,13.00
2018-01-11T00:29:43.717Z,11.50
2018-01-11T00:30:50.456Z,11.80
2018-01-11T00:31:57.256Z,12.60
2018-01-11T00:33:04.052Z,11.50
2018-01-11T00:34:10.804Z,12.00
2018-01-11T00:35:17.536Z,11.00
2018-01-11T00:36:24.304Z,10.80
2018-01-11T00:37:31.046Z,10.70
2018-01-11T00:38:37.780Z,11.20
2018-01-11T00:39:44.531Z,11.70
2018-01-11T00:40:51.340Z,10.50
2018-01-11T00:41:58.093Z,10.30
2018-01-11T00:43:04.893Z,10.80
2018-01-11T00:44:11.744Z,9.90
2018-01-11T00:45:18.504Z,10.20
2018-01-11T00:46:25.623Z,10.30
2018-01-11T00:47:32.432Z,11.50
2018-01-11T00:48:39.163Z,10.90
2018-01-11T00:49:45.937Z,11.00
2018-01-11T00:50:52.696Z,11.10
2018-01-11T00:51:59.448Z,10.20
2018-01-11T00:53:06.198Z,10.90
2018-01-11T00:54:12.952Z,11.00
2018-01-11T00:55:19.698Z,11.20
2018-01-11T00:56:26.460Z,10.40
2018-01-11T00:57:33.208Z,11.20
2018-01-11T00:58:39.992Z,10.80
2018-01-11T00:59:46.749Z,11.10
2018-01-11T01:00:53.516Z,11.00
2018-01-11T01:02:00.289Z,11.80
2018-01-11T01:03:07.083Z,11.80
2018-01-11T01:04:13.868Z,10.90
2018-01-11T01:05:20.645Z,10.80
2018-01-11T01:06:27.396Z,11.80
2018-01-11T01:07:34.209Z,12.40
2018-01-11T01:08:40.957Z,11.70
2018-01-11T01:09:48.081Z,11.40
2018-01-11T01:10:54.812Z,12.10
2018-01-11T01:12:01.584Z,11.90
2018-01-11T01:13:08.428Z,12.00
2018-01-11T01:14:15.188Z,12.20
2018-01-11T01:15:21.960Z,12.10
2018-01-11T01:16:28.692Z,11.40
2018-01-11T01:17:35.537Z,11.20
2018-01-11T01:18:42.406Z,11.80
2018-01-11T01:19:49.256Z,11.90
2018-01-11T01:20:55.988Z,12.20
2018-01-11T01:22:02.793Z,10.40
2018-01-11T01:23:09.567Z,10.70
2018-01-11T01:24:16.396Z,10.70
2018-01-11T01:25:23.166Z,11.30
2018-01-11T01:26:29.933Z,11.60
2018-01-11T01:27:36.706Z,11.40
2018-01-11T01:28:43.480Z,10.60
2018-01-11T01:29:50.229Z,10.00
2018-01-11T01:30:57.032Z,12.10
2018-01-11T01:32:03.788Z,12.40
2018-01-11T01:33:10.553Z,12.20
2018-01-11T01:34:17.328Z,11.90
2018-01-11T01:35:24.101Z,11.20
2018-01-11T01:36:30.875Z,11.20
2018-01-11T01:37:37.654Z,11.50
2018-01-11T01:38:44.409Z,12.10
2018-01-11T01:39:51.186Z,11.80
2018-01-11T01:40:57.946Z,11.20
2018-01-11T01:42:04.716Z,12.40
2018-01-11T01:43:11.468Z,11.50
2018-01-11T01:44:18.220Z,11.80
2018-01-11T01:45:25.000Z,11.60
2018-01-11T01:46:31.773Z,11.30
2018-01-11T01:47:38.528Z,11.80
2018-01-11T01:48:45.295Z,11.30
2018-01-11T01:49:52.024Z,11.50
2018-01-11T01:50:58.830Z,11.80
2018-01-11T01:52:05.598Z,12.60
2018-01-11T01:53:12.357Z,11.90
2018-01-11T01:54:19.105Z,11.80
2018-01-11T01:55:25.898Z,12.00
2018-01-11T01:56:32.660Z,11.40
2018-01-11T01:57:39.452Z,11.40
2018-01-11T01:58:46.190Z,11.30
2018-01-11T01:59:52.968Z,10.10
2018-01-11T02:00:59.784Z,11.50
2018-01-11T02:02:06.549Z,11.40
2018-01-11T02:03:13.404Z,10.50
2018-01-11T02:04:20.156Z,12.20
2018-01-11T02:05:26.904Z,10.20
2018-01-11T02:06:33.661Z,10.70
2018-01-11T02:07:40.488Z,11.00
2018-01-11T02:08:47.234Z,11.10
2018-01-11T02:09:54.016Z,10.90
2018-01-11T02:11:00.781Z,10.90
2018-01-11T02:12:07.577Z,11.20
2018-01-11T02:13:14.384Z,10.30
2018-01-11T02:14:21.124Z,9.90
2018-01-11T02:15:27.951Z,10.40
2018-01-11T02:16:34.720Z,11.00
2018-01-11T02:17:41.555Z,10.40
2018-01-11T02:18:48.388Z,9.70
2018-01-11T02:19:55.152Z,9.90
2018-01-11T02:21:01.892Z,11.20
2018-01-11T02:22:08.696Z,9.60
2018-01-11T02:23:15.492Z,10.10
2018-01-11T02:24:22.237Z,10.50
2018-01-11T02:25:29.004Z,10.50
2018-01-11T02:26:35.818Z,9.60
2018-01-11T02:27:42.667Z,9.60
2018-01-11T02:28:50.740Z,10.50
2018-01-11T02:29:56.573Z,9.90
2018-01-11T02:31:03.386Z,11.00
2018-01-11T02:32:10.164Z,10.40
2018-01-11T02:33:16.929Z,9.80
2018-01-11T02:34:23.672Z,10.50
2018-01-11T02:35:30.430Z,10.00
2018-01-11T02:36:37.216Z,10.10
2018-01-11T02:37:43.976Z,9.40
2018-01-11T02:38:50.769Z,10.00
2018-01-11T02:39:57.520Z,9.90
2018-01-11T02:41:04.339Z,11.10
2018-01-11T02:42:11.137Z,10.20
2018-01-11T02:43:17.935Z,10.00
2018-01-11T02:44:24.709Z,10.50
2018-01-11T02:45:31.474Z,10.60
2018-01-11T02:46:38.321Z,9.30
2018-01-11T02:47:45.196Z,9.90
2018-01-11T02:48:51.964Z,10.10
2018-01-11T02:49:58.722Z,10.80
2018-01-11T02:51:05.453Z,9.90
2018-01-11T02:52:12.268Z,8.80
2018-01-11T02:53:19.025Z,9.70
2018-01-11T02:54:25.792Z,9.00
2018-01-11T02:55:32.523Z,9.40
2018-01-11T02:56:39.333Z,10.00
2018-01-11T02:57:46.124Z,9.70
2018-01-11T02:58:53.166Z,10.30
2018-01-11T02:59:59.952Z,9.30
2018-01-11T03:01:06.823Z,10.10
2018-01-11T03:02:13.612Z,10.20
2018-01-11T03:03:20.363Z,9.90
2018-01-11T03:04:27.153Z,9.40
2018-01-11T03:05:33.901Z,9.00
2018-01-11T03:06:40.677Z,8.80
2018-01-11T03:07:47.472Z,9.10
2018-01-11T03:08:54.241Z,9.50
2018-01-11T03:10:01.104Z,8.90
2018-01-11T03:11:07.896Z,9.30
2018-01-11T03:12:14.660Z,9.50
2018-01-11T03:13:21.416Z,10.00
2018-01-11T03:14:28.460Z,10.60
2018-01-11T03:15:35.200Z,9.80
2018-01-11T03:16:42.004Z,9.70
2018-01-11T03:17:49.055Z,10.50
2018-01-11T03:18:55.808Z,10.40
2018-01-11T03:20:02.591Z,9.30
2018-01-11T03:21:09.374Z,10.80
2018-01-11T03:22:16.229Z,9.60
2018-01-11T03:23:22.999Z,9.60
2018-01-11T03:24:29.801Z,10.30
2018-01-11T03:25:36.644Z,10.40
2018-01-11T03:26:43.401Z,9.20
2018-01-11T03:27:50.228Z,9.90
2018-01-11T03:28:57.065Z,9.80
2018-01-11T03:30:03.811Z,9.40
2018-01-11T03:31:10.594Z,10.50
2018-01-11T03:32:17.505Z,9.90
2018-01-11T03:33:24.255Z,9.80
2018-01-11T03:34:31.022Z,9.30
2018-01-11T03:35:37.833Z,9.50
2018-01-11T03:36:44.563Z,9.70
2018-01-11T03:37:51.351Z,9.50
2018-01-11T03:38:58.121Z,9.50
2018-01-11T03:40:04.884Z,10.10
2018-01-11T03:41:11.681Z,9.30
2018-01-11T03:42:18.449Z,9.10
2018-01-11T03:43:25.245Z,8.70
2018-01-11T03:44:32.104Z,9.70
2018-01-11T03:45:38.844Z,9.60
2018-01-11T03:46:45.619Z,8.80
2018-01-11T03:47:52.431Z,8.00
2018-01-11T03:48:59.215Z,8.70
2018-01-11T03:50:05.970Z,8.90
2018-01-11T03:51:12.713Z,8.50
2018-01-11T03:52:19.501Z,8.70
2018-01-11T03:53:26.272Z,9.30
2018-01-11T03:54:33.045Z,9.10
2018-01-11T03:55:39.834Z,7.80
2018-01-11T03:56:46.704Z,9.40
2018-01-11T03:57:53.573Z,8.50
2018-01-11T03:59:00.501Z,8.30
2018-01-11T04:00:07.284Z,8.80
2018-01-11T04:01:14.077Z,7.70
2018-01-11T04:02:20.958Z,8.60
2018-01-11T04:03:27.729Z,7.60
2018-01-11T04:04:34.485Z,7.80
2018-01-11T04:05:41.256Z,7.60
2018-01-11T04:06:48.041Z,8.10
2018-01-11T04:07:54.850Z,8.20
2018-01-11T04:09:01.610Z,8.80
2018-01-11T04:10:08.599Z,8.10
2018-01-11T04:11:15.353Z,7.70
2018-01-11T04:12:22.148Z,8.00
2018-01-11T04:13:28.920Z,7.10
2018-01-11T04:14:35.680Z,7.90
2018-01-11T04:15:42.479Z,7.40
2018-01-11T04:16:49.211Z,7.10
2018-01-11T04:17:56.044Z,7.40
2018-01-11T04:19:02.816Z,7.10
2018-01-11T04:20:09.588Z,6.70
2018-01-11T04:21:16.752Z,7.40
2018-01-11T04:22:23.721Z,8.40
2018-01-11T04:23:30.497Z,7.10
2018-01-11T04:24:37.287Z,7.20
2018-01-11T04:25:44.029Z,8.30
2018-01-11T04:26:50.817Z,7.90
2018-01-11T04:27:57.593Z,7.60
2018-01-11T04:29:04.482Z,7.50
2018-01-11T04:30:11.268Z,7.50
2018-01-11T04:31:18.044Z,7.70
2018-01-11T04:32:24.964Z,7.20
2018-01-11T04:33:31.761Z,8.10
2018-01-11T04:34:38.579Z,7.70
2018-01-11T04:35:45.365Z,8.60
2018-01-11T04:36:52.161Z,6.70
2018-01-11T04:37:58.965Z,7.60
2018-01-11T04:39:05.813Z,7.90
2018-01-11T04:40:12.576Z,8.20
2018-01-11T04:41:19.348Z,7.60
2018-01-11T04:42:26.228Z,8.00
2018-01-11T04:43:33.000Z,7.90
2018-01-11T04:44:39.786Z,7.70
2018-01-11T04:45:46.631Z,7.50
2018-01-11T04:46:53.405Z,8.60
2018-01-11T04:48:00.184Z,8.50
2018-01-11T04:49:07.064Z,8.70
2018-01-11T04:50:14.141Z,9.00
2018-01-11T04:51:20.889Z,9.70
2018-01-11T04:52:27.764Z,9.80
2018-01-11T04:53:34.650Z,10.80
2018-01-11T04:54:41.416Z,11.10
2018-01-11T04:55:48.168Z,10.30
2018-01-11T04:56:54.940Z,11.20
2018-01-11T04:58:01.733Z,10.50
2018-01-11T04:59:08.484Z,10.60
2018-01-11T05:00:15.288Z,11.10
2018-01-11T05:01:22.141Z,10.20
2018-01-11T05:02:28.951Z,10.70
2018-01-11T05:03:35.862Z,11.10
2018-01-11T05:04:42.660Z,9.60
2018-01-11T05:05:49.478Z,11.20
2018-01-11T05:06:56.232Z,10.80
2018-01-11T05:08:03.032Z,9.70
2018-01-11T05:09:09.817Z,10.20
2018-01-11T05:10:16.585Z,10.50
2018-01-11T05:11:23.443Z,9.40
2018-01-11T05:12:30.237Z,10.90
2018-01-11T05:13:37.026Z,10.80
2018-01-11T05:14:43.777Z,9.70
2018-01-11T05:15:50.540Z,9.90
2018-01-11T05:16:57.312Z,9.60
2018-01-11T05:18:04.093Z,10.10
2018-01-11T05:19:10.849Z,9.20
2018-01-11T05:20:17.649Z,10.50
2018-01-11T05:21:24.409Z,9.20
2018-01-11T05:22:31.224Z,9.10
2018-01-11T05:23:38.078Z,9.90
2018-01-11T05:24:44.881Z,8.60
2018-01-11T05:25:51.669Z,10.60
2018-01-11T05:26:58.848Z,10.70
2018-01-11T05:28:05.685Z,10.40
2018-01-11T05:29:12.456Z,12.40
2018-01-11T05:30:19.224Z,11.30
2018-01-11T05:31:26.116Z,11.50
2018-01-11T05:32:32.896Z,12.60
2018-01-11T05:33:39.672Z,11.10
2018-01-11T05:34:46.560Z,11.70
2018-01-11T05:35:53.399Z,11.30
2018-01-11T05:37:00.174Z,11.30
2018-01-11T05:38:07.008Z,10.80
2018-01-11T05:39:13.792Z,11.00
2018-01-11T05:40:20.580Z,11.30
2018-01-11T05:41:27.440Z,11.80
2018-01-11T05:42:34.218Z,10.20
2018-01-11T05:43:41.014Z,11.00
2018-01-11T05:44:47.902Z,11.80
2018-01-11T05:45:54.669Z,11.10
2018-01-11T05:47:01.460Z,12.50
2018-01-11T05:48:08.345Z,11.20
2018-01-11T05:49:15.109Z,9.80
2018-01-11T05:50:21.893Z,11.40
2018-01-11T05:51:28.756Z,11.80
2018-01-11T05:52:35.562Z,11.30
2018-01-11T05:53:42.352Z,12.10
2018-01-11T05:54:49.200Z,10.50
2018-01-11T05:55:55.932Z,10.10
2018-01-11T05:57:02.716Z,10.60
2018-01-11T05:58:09.490Z,10.70
2018-01-11T05:59:16.285Z,10.40
2018-01-11T06:00:23.057Z,10.90
2018-01-11T06:01:29.827Z,11.30
2018-01-11T06:02:36.737Z,11.10
2018-01-11T06:03:43.521Z,10.20
2018-01-11T06:04:50.261Z,9.30
2018-01-11T06:05:57.008Z,9.90
2018-01-11T06:07:03.829Z,10.20
2018-01-11T06:08:10.617Z,10.80
2018-01-11T06:09:17.390Z,11.10
2018-01-11T06:10:24.156Z,11.30
2018-01-11T06:11:31.004Z,12.00
2018-01-11T06:12:37.791Z,10.90
2018-01-11T06:13:44.563Z,11.50
2018-01-11T06:14:51.373Z,10.30
2018-01-11T06:15:58.141Z,10.40
2018-01-11T06:17:04.997Z,11.20
2018-01-11T06:18:11.808Z,9.10
2018-01-11T06:19:18.625Z,10.30
2018-01-11T06:20:25.372Z,10.90
2018-01-11T06:21:32.145Z,12.20
2018-01-11T06:22:38.944Z,10.50
2018-01-11T06:23:45.695Z,11.20
2018-01-11T06:24:52.505Z,9.80
2018-01-11T06:25:59.426Z,10.90
2018-01-11T06:27:06.167Z,10.50
2018-01-11T06:28:12.959Z,11.00
2018-01-11T06:29:19.798Z,9.90
2018-01-11T06:30:26.528Z,10.50
2018-01-11T06:31:33.288Z,9.90
2018-01-11T06:32:40.037Z,10.20
2018-01-11T06:33:46.873Z,10.00
2018-01-11T06:34:53.636Z,10.90
2018-01-11T06:36:00.360Z,11.10
2018-01-11T06:37:07.097Z,10.80
2018-01-11T06:38:13.945Z,10.20
2018-01-11T06:39:20.676Z,10.10
2018-01-11T06:40:27.456Z,10.70
2018-01-11T06:41:34.204Z,11.00
2018-01-11T06:42:41.310Z,9.70
2018-01-11T06:43:48.167Z,10.90
2018-01-11T06:44:54.925Z,11.40
2018-01-11T06:46:01.682Z,10.80
2018-01-11T06:47:08.448Z,10.80
2018-01-11T06:48:15.237Z,10.90
2018-01-11T06:49:21.988Z,10.20
2018-01-11T06:50:28.749Z,11.70
2018-01-11T06:51:35.560Z,10.30
2018-01-11T06:52:42.357Z,10.70
2018-01-11T06:53:49.108Z,10.80
2018-01-11T06:54:55.859Z,9.10
2018-01-11T06:56:02.768Z,10.40
2018-01-11T06:57:09.541Z,11.30
2018-01-11T06:58:16.301Z,11.00
2018-01-11T06:59:23.012Z,11.80
2018-01-11T07:00:29.803Z,11.20
2018-01-11T07:01:36.605Z,10.30
2018-01-11T07:02:43.416Z,11.10
2018-01-11T07:03:50.222Z,10.80
2018-01-11T07:04:57.057Z,11.10
2018-01-11T07:06:03.789Z,10.40
2018-01-11T07:07:10.656Z,11.10
2018-01-11T07:08:17.398Z,10.60
2018-01-11T07:09:24.197Z,10.10
2018-01-11T07:10:31.050Z,11.20
2018-01-11T07:11:37.862Z,11.10
2018-01-11T07:12:44.638Z,11.30
2018-01-11T07:13:51.473Z,11.30
2018-01-11T07:14:58.311Z,12.30
2018-01-11T07:16:05.101Z,15.90
2018-01-11T07:17:11.923Z,14.60
2018-01-11T07:18:18.664Z,14.60
2018-01-11T07:19:25.457Z,13.80
2018-01-11T07:20:32.345Z,15.70
2018-01-11T07:21:39.140Z,15.00
2018-01-11T07:22:45.936Z,15.00
2018-01-11T07:23:52.768Z,16.40
2018-01-11T07:24:59.581Z,15.70
2018-01-11T07:26:06.354Z,18.90
2018-01-11T07:27:13.205Z,15.60
2018-01-11T07:28:20.000Z,16.70
2018-01-11T07:29:26.753Z,15.90
2018-01-11T07:30:33.620Z,11.60
2018-01-11T07:31:40.465Z,12.30
2018-01-11T07:32:47.265Z,13.10
2018-01-11T07:33:54.069Z,12.30
2018-01-11T07:35:00.821Z,13.20
2018-01-11T07:36:07.704Z,12.60
2018-01-11T07:37:14.492Z,11.90
2018-01-11T07:38:21.274Z,12.80
2018-01-11T07:39:28.085Z,12.80
2018-01-11T07:40:34.926Z,13.60
2018-01-11T07:41:41.656Z,13.90
2018-01-11T07:42:48.459Z,13.30
2018-01-11T07:43:55.372Z,13.20
2018-01-11T07:45:02.160Z,13.30
2018-01-11T07:46:08.965Z,19.30
2018-01-11T07:47:15.792Z,19.00
2018-01-11T07:48:22.536Z,19.00
2018-01-11T07:49:29.351Z,18.90
2018-01-11T07:50:36.232Z,17.00
2018-01-11T07:51:43.049Z,14.90
2018-01-11T07:52:49.812Z,14.20
2018-01-11T07:53:56.652Z,14.20
2018-01-11T07:55:03.412Z,13.70
2018-01-11T07:56:10.188Z,13.90
2018-01-11T07:57:16.944Z,14.20
2018-01-11T07:58:23.725Z,14.90
2018-01-11T07:59:30.556Z,14.40
2018-01-11T08:00:37.358Z,14.00
2018-01-11T08:01:44.165Z,14.10
2018-01-11T08:02:50.939Z,13.80
2018-01-11T08:03:57.948Z,13.90
2018-01-11T08:05:04.724Z,13.20
2018-01-11T08:06:11.500Z,14.00
2018-01-11T08:07:18.381Z,12.40
2018-01-11T08:08:25.140Z,13.80
2018-01-11T08:09:31.941Z,12.50
2018-01-11T08:10:38.816Z,13.10
2018-01-11T08:11:45.583Z,14.20
2018-01-11T08:12:52.396Z,13.70
2018-01-11T08:13:59.306Z,13.60
2018-01-11T08:15:06.215Z,12.30
2018-01-11T08:16:13.337Z,12.20
2018-01-11T08:17:20.204Z,12.30
2018-01-11T08:18:26.980Z,12.30
2018-01-11T08:19:33.773Z,13.10
2018-01-11T08:20:40.640Z,12.20
2018-01-11T08:21:47.446Z,11.80
2018-01-11T08:22:54.233Z,13.00
2018-01-11T08:24:01.135Z,12.90
2018-01-11T08:25:07.944Z,12.90
2018-01-11T08:26:14.853Z,12.40
2018-01-11T08:27:21.640Z,12.30
2018-01-11T08:28:28.438Z,12.80
2018-01-11T08:29:35.216Z,13.70
2018-01-11T08:30:42.014Z,13.60
2018-01-11T08:31:48.812Z,14.40
2018-01-11T08:32:55.629Z,13.50
2018-01-11T08:34:02.453Z,12.30
2018-01-11T08:35:09.425Z,12.50
2018-01-11T08:36:16.225Z,12.50
2018-01-11T08:37:23.040Z,13.00
2018-01-11T08:38:29.847Z,13.30
2018-01-11T08:39:36.639Z,14.10
2018-01-11T08:40:43.404Z,13.80
2018-01-11T08:41:50.292Z,12.80
2018-01-11T08:42:57.088Z,14.90
2018-01-11T08:44:03.856Z,14.20
2018-01-11T08:45:10.712Z,13.80
2018-01-11T08:46:17.534Z,14.70
2018-01-11T08:47:24.370Z,13.60
2018-01-11T08:48:31.116Z,12.90
2018-01-11T08:49:37.921Z,14.50
2018-01-11T08:50:44.694Z,13.00
2018-01-11T08:51:51.542Z,14.50
2018-01-11T08:52:58.344Z,13.90
2018-01-11T08:54:05.104Z,15.40
2018-01-11T08:55:11.948Z,16.20
2018-01-11T08:56:18.732Z,14.50
2018-01-11T08:57:25.647Z,14.70
2018-01-11T08:58:32.425Z,13.80
2018-01-11T08:59:39.223Z,13.00
2018-01-11T09:00:45.976Z,13.60
2018-01-11T09:01:52.740Z,12.90
2018-01-11T09:02:59.548Z,13.60
2018-01-11T09:04:06.316Z,14.50
2018-01-11T09:05:13.152Z,14.30
2018-01-11T09:06:20.361Z,13.50
2018-01-11T09:07:26.679Z,13.60
2018-01-11T09:08:33.560Z,14.40
2018-01-11T09:09:40.346Z,13.20
2018-01-11T09:10:47.112Z,15.80
2018-01-11T09:11:53.953Z,15.20
2018-01-11T09:13:00.756Z,13.70
2018-01-11T09:14:07.505Z,14.30
2018-01-11T09:15:14.328Z,13.60
2018-01-11T09:16:21.215Z,14.20
2018-01-11T09:17:28.083Z,13.20
2018-01-11T09:18:34.882Z,14.50
2018-01-11T09:19:41.722Z,14.50
2018-01-11T09:20:48.769Z,14.00
2018-01-11T09:21:55.636Z,14.70
2018-01-11T09:23:02.437Z,15.20
2018-01-11T09:24:09.212Z,15.90
2018-01-11T09:25:16.052Z,15.60
2018-01-11T09:26:22.832Z,14.90
2018-01-11T09:27:29.620Z,17.20
2018-01-11T09:28:36.516Z,16.30
2018-01-11T09:29:43.288Z,16.30
2018-01-11T09:30:50.157Z,16.40
2018-01-11T09:31:56.944Z,16.80
2018-01-11T09:33:03.728Z,16.10
2018-01-11T09:34:10.536Z,15.90
2018-01-11T09:35:17.396Z,16.50
2018-01-11T09:36:24.178Z,15.90
2018-01-11T09:37:30.969Z,16.60
2018-01-11T09:38:37.886Z,16.30
2018-01-11T09:39:44.652Z,17.30
2018-01-11T09:40:51.457Z,16.30
2018-01-11T09:41:58.584Z,16.30
2018-01-11T09:43:05.406Z,16.70
2018-01-11T09:44:12.196Z,15.10
2018-01-11T09:45:18.965Z,16.70
2018-01-11T09:46:25.790Z,15.60
2018-01-11T09:47:32.562Z,15.70
2018-01-11T09:48:39.372Z,15.90
2018-01-11T09:49:46.235Z,15.00
2018-01-11T09:50:53.017Z,17.10
2018-01-11T09:51:59.796Z,15.30
2018-01-11T09:53:06.668Z,16.00
2018-01-11T09:54:13.506Z,15.40
2018-01-11T09:55:20.304Z,15.50
2018-01-11T09:56:27.344Z,15.20
2018-01-11T09:57:34.209Z,15.50
2018-01-11T09:58:40.968Z,16.00
2018-01-11T09:59:47.769Z,16.00
2018-01-11T10:00:54.648Z,17.80
2018-01-11T10:02:01.425Z,16.90
2018-01-11T10:03:08.339Z,15.40
2018-01-11T10:04:15.159Z,16.70
2018-01-11T10:05:21.943Z,24.40
2018-01-11T10:06:28.860Z,31.50
2018-01-11T10:07:35.633Z,20.60
2018-01-11T10:08:42.396Z,18.30
2018-01-11T10:09:49.199Z,17.20
2018-01-11T10:10:55.968Z,15.50
2018-01-11T10:12:02.748Z,16.20
2018-01-11T10:13:09.694Z,15.50
2018-01-11T10:14:16.280Z,16.10
2018-01-11T10:15:23.024Z,15.10
2018-01-11T10:16:29.787Z,16.50
2018-01-11T10:17:36.584Z,13.50
2018-01-11T10:18:43.444Z,14.40
2018-01-11T10:19:50.225Z,13.90
2018-01-11T10:20:57.033Z,15.30
2018-01-11T10:22:03.877Z,14.80
2018-01-11T10:23:10.840Z,13.80
2018-01-11T10:24:17.646Z,15.40
2018-01-11T10:25:24.472Z,14.70
2018-01-11T10:26:31.258Z,14.40
2018-01-11T10:27:38.056Z,13.80
2018-01-11T10:28:45.148Z,13.50
2018-01-11T10:29:51.936Z,14.60
2018-01-11T10:30:58.713Z,14.40
2018-01-11T10:32:05.448Z,14.30
2018-01-11T10:33:12.257Z,14.60
2018-01-11T10:34:19.016Z,15.30
2018-01-11T10:35:25.764Z,14.80
2018-01-11T10:36:32.577Z,14.10
2018-01-11T10:37:39.325Z,14.20
2018-01-11T10:38:46.060Z,14.70
2018-01-11T10:39:52.836Z,15.30
2018-01-11T10:40:59.567Z,14.20
2018-01-11T10:42:06.429Z,15.20
2018-01-11T10:43:13.211Z,14.90
2018-01-11T10:44:19.960Z,13.10
2018-01-11T10:45:26.733Z,14.40
2018-01-11T10:46:33.524Z,14.50
2018-01-11T10:47:40.295Z,14.70
2018-01-11T10:48:47.094Z,15.60
2018-01-11T10:49:53.916Z,13.80
2018-01-11T10:51:00.693Z,20.80
2018-01-11T10:52:07.492Z,17.00
2018-01-11T10:53:14.324Z,13.70
2018-01-11T10:54:21.064Z,13.70
2018-01-11T10:55:27.832Z,14.60
2018-01-11T10:56:34.588Z,13.70
2018-01-11T10:57:41.418Z,14.00
2018-01-11T10:58:48.165Z,13.30
2018-01-11T10:59:54.912Z,16.20
2018-01-11T11:01:01.939Z,14.60
2018-01-11T11:02:08.820Z,14.90
2018-01-11T11:03:19.876Z,14.90
2018-01-11T11:04:26.617Z,14.00
2018-01-11T11:05:33.400Z,18.40
2018-01-11T11:06:40.124Z,17.20
2018-01-11T11:07:46.896Z,16.60
2018-01-11T11:08:53.640Z,15.50
2018-01-11T11:10:00.477Z,14.50
2018-01-11T11:11:07.356Z,15.10
2018-01-11T11:12:14.117Z,14.50
2018-01-11T11:13:20.900Z,16.40
2018-01-11T11:14:27.667Z,14.30
2018-01-11T11:15:34.444Z,15.80
2018-01-11T11:16:41.294Z,12.70
2018-01-11T11:17:48.068Z,14.80
2018-01-11T11:18:55.132Z,13.80
2018-01-11T11:20:01.927Z,13.90
2018-01-11T11:21:08.668Z,14.00
2018-01-11T11:22:15.472Z,15.10
2018-01-11T11:23:22.249Z,12.60
2018-01-11T11:24:29.018Z,13.10
2018-01-11T11:25:35.876Z,13.60
2018-01-11T11:26:42.662Z,15.60
2018-01-11T11:27:49.429Z,14.00
2018-01-11T11:28:56.185Z,13.90
2018-01-11T11:30:02.959Z,13.40
2018-01-11T11:31:09.692Z,13.20
2018-01-11T11:32:16.465Z,13.10
2018-01-11T11:33:23.207Z,12.60
2018-01-11T11:34:30.041Z,13.20
2018-01-11T11:35:36.819Z,17.00
2018-01-11T11:36:43.576Z,14.10
2018-01-11T11:37:50.312Z,14.10
2018-01-11T11:38:57.112Z,12.80
2018-01-11T11:40:03.894Z,13.30
2018-01-11T11:41:10.661Z,13.10
2018-01-11T11:42:17.519Z,11.90
2018-01-11T11:43:24.533Z,12.20
2018-01-11T11:44:31.352Z,13.10
2018-01-11T11:45:38.096Z,13.40
2018-01-11T11:46:44.876Z,12.50
2018-01-11T11:47:51.651Z,12.00
2018-01-11T11:48:58.402Z,12.70
2018-01-11T11:50:05.186Z,12.40
2018-01-11T11:51:12.006Z,13.20
2018-01-11T11:52:18.839Z,12.20
2018-01-11T11:53:25.571Z,11.20
2018-01-11T11:54:32.437Z,12.30
2018-01-11T11:55:39.156Z,12.30
2018-01-11T11:56:45.928Z,12.50
2018-01-11T11:57:52.688Z,12.90
2018-01-11T11:58:59.465Z,13.00
2018-01-11T12:00:06.223Z,11.50
2018-01-11T12:01:13.000Z,12.80
2018-01-11T12:02:19.757Z,13.30
2018-01-11T12:03:26.523Z,11.80
2018-01-11T12:04:33.282Z,12.20
2018-01-11T12:05:40.104Z,12.80
2018-01-11T12:06:46.885Z,13.30
2018-01-11T12:07:53.627Z,13.00
2018-01-11T12:09:00.349Z,12.30
2018-01-11T12:10:07.280Z,13.20
2018-01-11T12:11:14.010Z,12.40
2018-01-11T12:12:20.746Z,13.10
2018-01-11T12:13:27.601Z,13.30
2018-01-11T12:14:34.335Z,13.10
2018-01-11T12:15:41.105Z,13.10
2018-01-11T12:16:47.836Z,14.10
2018-01-11T12:17:54.632Z,13.10
2018-01-11T12:19:01.374Z,11.90
2018-01-11T12:20:08.128Z,13.70
2018-01-11T12:21:14.885Z,17.20
2018-01-11T12:22:21.976Z,13.20
2018-01-11T12:23:28.867Z,11.70
2018-01-11T12:24:35.596Z,14.30
2018-01-11T12:25:42.370Z,14.10
2018-01-11T12:26:49.140Z,12.90
2018-01-11T12:27:55.964Z,12.60
2018-01-11T12:29:02.716Z,12.90
2018-01-11T12:30:09.456Z,12.70
2018-01-11T12:31:16.221Z,13.10
2018-01-11T12:32:23.056Z,12.60
2018-01-11T12:33:29.780Z,16.70
2018-01-11T12:34:36.516Z,18.60
2018-01-11T12:35:43.224Z,19.00
2018-01-11T12:36:49.988Z,13.40
2018-01-11T12:37:56.737Z,11.70
2018-01-11T12:39:03.467Z,11.80
2018-01-11T12:40:10.244Z,10.70
2018-01-11T12:41:16.980Z,11.00
2018-01-11T12:42:23.809Z,11.50
2018-01-11T12:43:30.536Z,11.00
2018-01-11T12:44:37.268Z,10.60
2018-01-11T12:45:44.000Z,10.10
2018-01-11T12:46:50.748Z,9.90
2018-01-11T12:47:57.545Z,9.00
2018-01-11T12:49:04.389Z,8.90
2018-01-11T12:50:11.148Z,9.30
2018-01-11T12:51:17.990Z,8.10
2018-01-11T12:52:24.846Z,8.50
2018-01-11T12:53:31.584Z,7.70
2018-01-11T12:54:38.420Z,9.40
2018-01-11T12:55:45.189Z,8.50
2018-01-11T12:56:52.045Z,8.60
2018-01-11T12:57:59.707Z,8.70
2018-01-11T12:59:06.117Z,10.10
2018-01-11T13:00:12.968Z,9.90
2018-01-11T13:01:19.966Z,8.30
2018-01-11T13:02:26.789Z,8.90
2018-01-11T13:03:33.613Z,8.00
2018-01-11T13:04:40.749Z,8.30
2018-01-11T13:05:47.533Z,8.90
2018-01-11T13:06:54.292Z,7.70
2018-01-11T13:08:01.467Z,8.60
2018-01-11T13:09:07.817Z,7.60
2018-01-11T13:10:14.953Z,7.60
2018-01-11T13:11:21.725Z,9.10
2018-01-11T13:12:28.504Z,8.60
2018-01-11T13:13:35.255Z,8.60
2018-01-11T13:14:42.017Z,8.30
2018-01-11T13:15:48.769Z,8.80
2018-01-11T13:16:55.507Z,9.90
2018-01-11T13:18:02.298Z,9.40
2018-01-11T13:19:09.104Z,9.70
2018-01-11T13:20:15.832Z,8.90
2018-01-11T13:21:22.629Z,9.30
2018-01-11T13:22:29.380Z,8.60
2018-01-11T13:23:36.196Z,7.90
2018-01-11T13:24:42.905Z,7.90
2018-01-11T13:25:49.646Z,8.40
2018-01-11T13:26:56.381Z,9.00
2018-01-11T13:28:03.148Z,8.70
2018-01-11T13:29:10.016Z,8.10
2018-01-11T13:30:16.772Z,8.50
2018-01-11T13:31:23.531Z,8.60
2018-01-11T13:32:30.386Z,9.10
2018-01-11T13:33:37.183Z,8.90
2018-01-11T13:34:43.929Z,9.70
2018-01-11T13:35:51.057Z,9.10
2018-01-11T13:36:57.811Z,10.40
2018-01-11T13:38:04.613Z,9.90
2018-01-11T13:39:11.334Z,9.20
2018-01-11T13:40:18.141Z,9.30
2018-01-11T13:41:24.866Z,9.10
2018-01-11T13:42:31.980Z,8.80
2018-01-11T13:43:38.708Z,8.70
2018-01-11T13:44:45.469Z,10.00
2018-01-11T13:45:52.237Z,8.10
2018-01-11T13:46:59.004Z,7.90
2018-01-11T13:48:05.768Z,7.10
2018-01-11T13:49:12.636Z,8.00
2018-01-11T13:50:19.409Z,7.60
2018-01-11T13:51:26.180Z,9.10
2018-01-11T13:52:33.001Z,8.10
2018-01-11T13:53:39.787Z,8.10
2018-01-11T13:54:46.556Z,8.40
2018-01-11T13:55:53.308Z,8.00
2018-01-11T13:57:00.096Z,8.60
2018-01-11T13:58:06.896Z,9.10
2018-01-11T13:59:13.684Z,8.80
2018-01-11T14:00:20.544Z,8.90
2018-01-11T14:01:27.361Z,8.90
2018-01-11T14:02:34.181Z,8.30
2018-01-11T14:03:40.996Z,9.70
2018-01-11T14:04:47.841Z,9.70
2018-01-11T14:05:54.743Z,9.30
2018-01-11T14:07:01.533Z,8.30
2018-01-11T14:08:08.348Z,9.30
2018-01-11T14:09:15.164Z,8.80
2018-01-11T14:10:21.997Z,8.40
2018-01-11T14:11:28.799Z,8.40
2018-01-11T14:12:35.680Z,8.50
2018-01-11T14:13:42.504Z,8.60
2018-01-11T14:14:49.380Z,8.20
2018-01-11T14:15:56.192Z,8.60
2018-01-11T14:17:03.036Z,8.30
2018-01-11T14:18:09.857Z,8.80
2018-01-11T14:19:16.657Z,8.70
2018-01-11T14:20:23.608Z,9.40
2018-01-11T14:21:30.421Z,8.10
2018-01-11T14:22:37.236Z,7.50
2018-01-11T14:23:44.091Z,7.20
2018-01-11T14:24:50.968Z,8.00
2018-01-11T14:25:57.876Z,7.60
2018-01-11T14:27:04.648Z,7.80
2018-01-11T14:28:11.564Z,7.50